sensor_id;sensor_type;location;lat;lon;timestamp;pressure;altitude;pressure_sealevel;temperature;humidity
75536;BME280;64119;52.070;20.804;2022-10-31T00:00:27;100774.79;;;8.11;85.19
75536;BME280;64119;52.070;20.804;2022-10-31T00:03:13;100776.95;;;8.06;85.40
75536;BME280;64119;52.070;20.804;2022-10-31T00:05:41;100776.07;;;8.04;85.27
75536;BME280;64119;52.070;20.804;2022-10-31T00:08:08;100771.94;;;8.03;84.91
75536;BME280;64119;52.070;20.804;2022-10-31T00:10:37;100773.98;;;8.00;85.16
75536;BME280;64119;52.070;20.804;2022-10-31T00:13:04;100774.52;;;7.97;84.81
75536;BME280;64119;52.070;20.804;2022-10-31T00:15:33;100775.27;;;7.95;84.89
75536;BME280;64119;52.070;20.804;2022-10-31T00:17:59;100778.21;;;7.95;84.85
75536;BME280;64119;52.070;20.804;2022-10-31T00:20:26;100778.17;;;8.00;84.64
75536;BME280;64119;52.070;20.804;2022-10-31T00:22:52;100777.22;;;8.06;84.77
75536;BME280;64119;52.070;20.804;2022-10-31T00:25:19;100775.98;;;8.10;84.69
75536;BME280;64119;52.070;20.804;2022-10-31T00:27:46;100774.27;;;8.06;84.57
75536;BME280;64119;52.070;20.804;2022-10-31T00:30:13;100773.91;;;8.01;85.02
75536;BME280;64119;52.070;20.804;2022-10-31T00:32:40;100770.83;;;7.95;85.05
75536;BME280;64119;52.070;20.804;2022-10-31T00:35:06;100772.05;;;7.92;85.44
75536;BME280;64119;52.070;20.804;2022-10-31T00:37:33;100776.95;;;7.89;84.67
75536;BME280;64119;52.070;20.804;2022-10-31T00:39:59;100776.33;;;7.93;84.79
75536;BME280;64119;52.070;20.804;2022-10-31T00:42:25;100772.67;;;7.96;84.68
75536;BME280;64119;52.070;20.804;2022-10-31T00:44:52;100772.73;;;8.04;84.54
75536;BME280;64119;52.070;20.804;2022-10-31T00:47:19;100772.95;;;8.05;84.42
75536;BME280;64119;52.070;20.804;2022-10-31T00:49:45;100773.73;;;7.98;84.65
75536;BME280;64119;52.070;20.804;2022-10-31T00:52:12;100773.09;;;7.89;84.34
75536;BME280;64119;52.070;20.804;2022-10-31T00:54:38;100774.05;;;7.83;84.45
75536;BME280;64119;52.070;20.804;2022-10-31T00:57:04;100774.00;;;7.75;84.72
75536;BME280;64119;52.070;20.804;2022-10-31T00:59:31;100777.86;;;7.67;84.66
75536;BME280;64119;52.070;20.804;2022-10-31T01:01:57;100773.36;;;7.63;84.88
75536;BME280;64119;52.070;20.804;2022-10-31T01:04:23;100768.96;;;7.61;85.09
75536;BME280;64119;52.070;20.804;2022-10-31T01:06:50;100765.89;;;7.64;85.63
75536;BME280;64119;52.070;20.804;2022-10-31T01:09:16;100771.71;;;7.64;85.61
75536;BME280;64119;52.070;20.804;2022-10-31T01:11:43;100771.80;;;7.61;85.86
75536;BME280;64119;52.070;20.804;2022-10-31T01:14:09;100769.55;;;7.58;85.45
75536;BME280;64119;52.070;20.804;2022-10-31T01:16:35;100766.50;;;7.55;85.48
75536;BME280;64119;52.070;20.804;2022-10-31T01:19:02;100775.24;;;7.57;85.20
75536;BME280;64119;52.070;20.804;2022-10-31T01:21:29;100772.54;;;7.63;84.78
75536;BME280;64119;52.070;20.804;2022-10-31T01:23:58;100771.59;;;7.66;84.79
75536;BME280;64119;52.070;20.804;2022-10-31T01:26:27;100772.77;;;7.65;84.82
75536;BME280;64119;52.070;20.804;2022-10-31T01:29:08;100772.93;;;7.64;85.15
75536;BME280;64119;52.070;20.804;2022-10-31T01:31:37;100771.52;;;7.64;85.10
75536;BME280;64119;52.070;20.804;2022-10-31T01:34:05;100769.39;;;7.61;84.94
75536;BME280;64119;52.070;20.804;2022-10-31T01:36:34;100771.25;;;7.58;84.84
75536;BME280;64119;52.070;20.804;2022-10-31T01:39:06;100772.14;;;7.55;84.99
75536;BME280;64119;52.070;20.804;2022-10-31T01:41:37;100772.52;;;7.53;84.88
75536;BME280;64119;52.070;20.804;2022-10-31T01:49:17;100779.09;;;7.52;84.83
75536;BME280;64119;52.070;20.804;2022-10-31T01:51:54;100782.20;;;7.51;84.67
75536;BME280;64119;52.070;20.804;2022-10-31T01:54:25;100788.18;;;7.49;84.61
75536;BME280;64119;52.070;20.804;2022-10-31T01:56:55;100784.85;;;7.48;84.59
75536;BME280;64119;52.070;20.804;2022-10-31T01:59:24;100785.11;;;7.49;84.37
75536;BME280;64119;52.070;20.804;2022-10-31T02:01:51;100784.56;;;7.45;84.66
75536;BME280;64119;52.070;20.804;2022-10-31T02:04:19;100782.71;;;7.29;84.47
75536;BME280;64119;52.070;20.804;2022-10-31T02:06:51;100779.72;;;7.26;84.47
75536;BME280;64119;52.070;20.804;2022-10-31T02:09:22;100781.66;;;7.24;84.69
75536;BME280;64119;52.070;20.804;2022-10-31T02:11:55;100783.23;;;7.16;85.18
75536;BME280;64119;52.070;20.804;2022-10-31T02:14:28;100786.61;;;7.08;85.50
75536;BME280;64119;52.070;20.804;2022-10-31T02:16:55;100778.18;;;7.00;85.23
75536;BME280;64119;52.070;20.804;2022-10-31T02:20:04;100776.42;;;6.93;85.27
75536;BME280;64119;52.070;20.804;2022-10-31T02:31:09;100782.86;;;6.85;86.75
75536;BME280;64119;52.070;20.804;2022-10-31T02:33:50;100783.05;;;6.92;86.66
75536;BME280;64119;52.070;20.804;2022-10-31T02:36:26;100778.25;;;6.96;86.25
75536;BME280;64119;52.070;20.804;2022-10-31T02:38:58;100779.15;;;6.94;86.49
75536;BME280;64119;52.070;20.804;2022-10-31T02:44:26;100781.11;;;6.85;87.10
75536;BME280;64119;52.070;20.804;2022-10-31T02:49:50;100784.27;;;6.76;88.11
75536;BME280;64119;52.070;20.804;2022-10-31T02:52:21;100789.17;;;6.75;87.25
75536;BME280;64119;52.070;20.804;2022-10-31T02:54:51;100790.98;;;6.78;86.86
75536;BME280;64119;52.070;20.804;2022-10-31T02:57:25;100798.27;;;6.82;86.46
75536;BME280;64119;52.070;20.804;2022-10-31T02:59:58;100796.23;;;6.83;87.08
75536;BME280;64119;52.070;20.804;2022-10-31T03:11:07;100805.74;;;6.87;86.84
75536;BME280;64119;52.070;20.804;2022-10-31T03:13:39;100809.77;;;6.92;86.53
75536;BME280;64119;52.070;20.804;2022-10-31T03:18:39;100810.52;;;6.83;86.49
75536;BME280;64119;52.070;20.804;2022-10-31T03:24:05;100823.53;;;6.85;86.60
75536;BME280;64119;52.070;20.804;2022-10-31T03:26:35;100821.20;;;6.92;86.78
75536;BME280;64119;52.070;20.804;2022-10-31T03:29:10;100822.86;;;6.96;87.03
75536;BME280;64119;52.070;20.804;2022-10-31T03:31:55;100825.80;;;7.03;86.92
75536;BME280;64119;52.070;20.804;2022-10-31T03:34:23;100827.08;;;7.01;86.95
75536;BME280;64119;52.070;20.804;2022-10-31T03:36:52;100826.25;;;6.96;86.82
75536;BME280;64119;52.070;20.804;2022-10-31T03:39:22;100826.05;;;6.95;86.72
75536;BME280;64119;52.070;20.804;2022-10-31T03:41:54;100834.45;;;6.93;86.58
75536;BME280;64119;52.070;20.804;2022-10-31T03:44:24;100833.45;;;6.89;86.47
75536;BME280;64119;52.070;20.804;2022-10-31T03:46:57;100833.08;;;6.96;86.65
75536;BME280;64119;52.070;20.804;2022-10-31T03:49:23;100829.83;;;6.95;87.15
75536;BME280;64119;52.070;20.804;2022-10-31T03:54:26;100838.77;;;6.73;87.13
75536;BME280;64119;52.070;20.804;2022-10-31T03:57:00;100845.81;;;6.65;86.71
75536;BME280;64119;52.070;20.804;2022-10-31T03:59:58;100844.87;;;6.59;86.86
75536;BME280;64119;52.070;20.804;2022-10-31T04:02:31;100842.04;;;6.56;87.81
75536;BME280;64119;52.070;20.804;2022-10-31T04:05:00;100840.64;;;6.55;87.76
75536;BME280;64119;52.070;20.804;2022-10-31T04:07:30;100841.41;;;6.60;89.24
75536;BME280;64119;52.070;20.804;2022-10-31T04:10:02;100843.64;;;6.61;88.94
75536;BME280;64119;52.070;20.804;2022-10-31T04:12:30;100837.94;;;6.58;88.24
75536;BME280;64119;52.070;20.804;2022-10-31T04:15:28;100833.74;;;6.65;88.13
75536;BME280;64119;52.070;20.804;2022-10-31T04:17:58;100835.92;;;6.66;87.98
75536;BME280;64119;52.070;20.804;2022-10-31T04:20:34;100830.30;;;6.63;87.67
75536;BME280;64119;52.070;20.804;2022-10-31T04:23:02;100835.32;;;6.63;87.48
75536;BME280;64119;52.070;20.804;2022-10-31T04:25:30;100835.70;;;6.61;86.99
75536;BME280;64119;52.070;20.804;2022-10-31T04:27:57;100836.34;;;6.60;87.37
75536;BME280;64119;52.070;20.804;2022-10-31T04:30:24;100832.77;;;6.66;87.77
75536;BME280;64119;52.070;20.804;2022-10-31T04:32:50;100835.75;;;6.69;87.98
75536;BME280;64119;52.070;20.804;2022-10-31T04:35:17;100833.80;;;6.75;88.41
75536;BME280;64119;52.070;20.804;2022-10-31T04:37:43;100832.54;;;6.89;88.73
75536;BME280;64119;52.070;20.804;2022-10-31T04:40:10;100832.33;;;7.02;88.18
75536;BME280;64119;52.070;20.804;2022-10-31T04:42:54;100836.01;;;7.17;88.67
75536;BME280;64119;52.070;20.804;2022-10-31T04:45:21;100831.92;;;7.35;88.61
75536;BME280;64119;52.070;20.804;2022-10-31T04:47:50;100830.11;;;7.49;88.72
75536;BME280;64119;52.070;20.804;2022-10-31T04:50:16;100830.24;;;7.61;88.30
75536;BME280;64119;52.070;20.804;2022-10-31T04:52:44;100832.03;;;7.69;88.13
75536;BME280;64119;52.070;20.804;2022-10-31T04:55:13;100838.13;;;7.73;87.81
75536;BME280;64119;52.070;20.804;2022-10-31T04:57:58;100839.75;;;7.74;87.30
75536;BME280;64119;52.070;20.804;2022-10-31T05:00:26;100842.34;;;7.70;87.02
75536;BME280;64119;52.070;20.804;2022-10-31T05:02:54;100846.23;;;7.63;87.01
75536;BME280;64119;52.070;20.804;2022-10-31T05:05:28;100850.17;;;7.59;87.04
75536;BME280;64119;52.070;20.804;2022-10-31T05:07:55;100848.59;;;7.57;87.09
75536;BME280;64119;52.070;20.804;2022-10-31T05:10:26;100846.14;;;7.52;87.30
75536;BME280;64119;52.070;20.804;2022-10-31T05:12:55;100842.79;;;7.54;87.39
75536;BME280;64119;52.070;20.804;2022-10-31T05:15:46;100844.05;;;7.57;86.77
75536;BME280;64119;52.070;20.804;2022-10-31T05:18:41;100846.97;;;7.48;86.80
75536;BME280;64119;52.070;20.804;2022-10-31T05:21:19;100849.73;;;7.46;86.53
75536;BME280;64119;52.070;20.804;2022-10-31T05:23:54;100845.20;;;7.43;86.26
75536;BME280;64119;52.070;20.804;2022-10-31T05:26:23;100845.95;;;7.42;86.35
75536;BME280;64119;52.070;20.804;2022-10-31T05:28:50;100846.48;;;7.42;86.40
75536;BME280;64119;52.070;20.804;2022-10-31T05:31:16;100851.70;;;7.39;86.68
75536;BME280;64119;52.070;20.804;2022-10-31T05:33:43;100854.40;;;7.37;87.08
75536;BME280;64119;52.070;20.804;2022-10-31T05:36:27;100856.02;;;7.23;87.66
75536;BME280;64119;52.070;20.804;2022-10-31T05:38:58;100857.63;;;7.16;88.80
75536;BME280;64119;52.070;20.804;2022-10-31T05:41:33;100854.46;;;7.12;89.01
75536;BME280;64119;52.070;20.804;2022-10-31T05:44:09;100860.08;;;7.12;88.14
75536;BME280;64119;52.070;20.804;2022-10-31T05:46:47;100864.20;;;7.13;88.45
75536;BME280;64119;52.070;20.804;2022-10-31T05:49:42;100865.10;;;7.15;90.45
75536;BME280;64119;52.070;20.804;2022-10-31T05:52:24;100866.98;;;7.15;89.80
75536;BME280;64119;52.070;20.804;2022-10-31T05:54:57;100865.80;;;7.20;89.46
75536;BME280;64119;52.070;20.804;2022-10-31T05:57:24;100866.81;;;7.24;89.35
75536;BME280;64119;52.070;20.804;2022-10-31T05:59:52;100869.02;;;7.24;89.15
75536;BME280;64119;52.070;20.804;2022-10-31T06:02:21;100865.95;;;7.24;89.26
75536;BME280;64119;52.070;20.804;2022-10-31T06:05:10;100861.48;;;7.23;89.60
75536;BME280;64119;52.070;20.804;2022-10-31T06:07:36;100868.80;;;7.25;88.91
75536;BME280;64119;52.070;20.804;2022-10-31T06:10:04;100868.58;;;7.29;88.93
75536;BME280;64119;52.070;20.804;2022-10-31T06:12:31;100872.09;;;7.38;89.46
75536;BME280;64119;52.070;20.804;2022-10-31T06:15:11;100876.33;;;7.46;90.51
75536;BME280;64119;52.070;20.804;2022-10-31T06:17:37;100878.90;;;7.57;89.94
75536;BME280;64119;52.070;20.804;2022-10-31T06:20:21;100878.11;;;7.68;90.19
75536;BME280;64119;52.070;20.804;2022-10-31T06:22:55;100879.89;;;7.79;90.14
75536;BME280;64119;52.070;20.804;2022-10-31T06:25:22;100879.45;;;7.90;90.34
75536;BME280;64119;52.070;20.804;2022-10-31T06:27:49;100879.42;;;8.01;90.04
75536;BME280;64119;52.070;20.804;2022-10-31T06:30:15;100877.17;;;8.11;90.61
75536;BME280;64119;52.070;20.804;2022-10-31T06:32:44;100876.95;;;8.21;90.90
75536;BME280;64119;52.070;20.804;2022-10-31T06:35:10;100882.63;;;8.33;90.37
75536;BME280;64119;52.070;20.804;2022-10-31T06:37:38;100880.52;;;8.44;90.86
75536;BME280;64119;52.070;20.804;2022-10-31T06:40:23;100880.14;;;8.54;90.60
75536;BME280;64119;52.070;20.804;2022-10-31T06:43:07;100876.09;;;8.62;90.39
75536;BME280;64119;52.070;20.804;2022-10-31T06:45:34;100878.14;;;8.68;91.05
75536;BME280;64119;52.070;20.804;2022-10-31T06:48:14;100883.15;;;8.76;90.52
75536;BME280;64119;52.070;20.804;2022-10-31T06:51:19;100885.98;;;8.87;90.49
75536;BME280;64119;52.070;20.804;2022-10-31T06:53:46;100890.23;;;8.98;90.72
75536;BME280;64119;52.070;20.804;2022-10-31T06:56:13;100893.02;;;9.06;90.78
75536;BME280;64119;52.070;20.804;2022-10-31T06:58:44;100890.11;;;9.12;91.40
75536;BME280;64119;52.070;20.804;2022-10-31T07:01:10;100894.40;;;9.19;90.63
75536;BME280;64119;52.070;20.804;2022-10-31T07:03:37;100891.29;;;9.27;90.91
75536;BME280;64119;52.070;20.804;2022-10-31T07:06:03;100891.30;;;9.30;91.06
75536;BME280;64119;52.070;20.804;2022-10-31T07:08:31;100896.55;;;9.35;90.79
75536;BME280;64119;52.070;20.804;2022-10-31T07:10:57;100895.61;;;9.35;91.24
75536;BME280;64119;52.070;20.804;2022-10-31T07:13:24;100891.38;;;9.37;91.40
75536;BME280;64119;52.070;20.804;2022-10-31T07:16:00;100890.38;;;9.45;91.28
75536;BME280;64119;52.070;20.804;2022-10-31T07:18:27;100889.57;;;9.50;91.95
75536;BME280;64119;52.070;20.804;2022-10-31T07:20:53;100896.57;;;9.57;91.53
75536;BME280;64119;52.070;20.804;2022-10-31T07:23:20;100897.52;;;9.63;91.39
75536;BME280;64119;52.070;20.804;2022-10-31T07:25:58;100898.84;;;9.70;91.09
75536;BME280;64119;52.070;20.804;2022-10-31T07:28:31;100895.23;;;9.79;91.73
75536;BME280;64119;52.070;20.804;2022-10-31T07:30:58;100895.43;;;9.88;91.04
75536;BME280;64119;52.070;20.804;2022-10-31T07:33:25;100898.27;;;9.95;91.25
75536;BME280;64119;52.070;20.804;2022-10-31T07:36:18;100902.20;;;10.06;91.45
75536;BME280;64119;52.070;20.804;2022-10-31T07:38:44;100906.58;;;10.19;91.62
75536;BME280;64119;52.070;20.804;2022-10-31T07:41:11;100910.59;;;10.27;91.23
75536;BME280;64119;52.070;20.804;2022-10-31T07:43:40;100909.41;;;10.39;91.16
75536;BME280;64119;52.070;20.804;2022-10-31T07:46:16;100910.79;;;10.53;90.49
75536;BME280;64119;52.070;20.804;2022-10-31T07:49:01;100907.98;;;10.67;90.42
75536;BME280;64119;52.070;20.804;2022-10-31T07:51:46;100909.34;;;10.87;90.39
75536;BME280;64119;52.070;20.804;2022-10-31T07:54:45;100908.97;;;11.05;90.52
75536;BME280;64119;52.070;20.804;2022-10-31T07:57:11;100909.69;;;11.23;90.08
75536;BME280;64119;52.070;20.804;2022-10-31T07:59:38;100910.90;;;11.32;89.61
75536;BME280;64119;52.070;20.804;2022-10-31T08:02:04;100908.14;;;11.33;89.48
75536;BME280;64119;52.070;20.804;2022-10-31T08:04:31;100908.94;;;11.40;89.57
75536;BME280;64119;52.070;20.804;2022-10-31T08:07:16;100903.17;;;11.56;89.72
75536;BME280;64119;52.070;20.804;2022-10-31T08:09:47;100906.05;;;11.68;89.57
75536;BME280;64119;52.070;20.804;2022-10-31T08:12:18;100903.00;;;11.86;89.68
75536;BME280;64119;52.070;20.804;2022-10-31T08:14:45;100902.37;;;12.10;89.15
75536;BME280;64119;52.070;20.804;2022-10-31T08:17:12;100899.05;;;12.35;88.53
75536;BME280;64119;52.070;20.804;2022-10-31T08:19:45;100901.61;;;12.47;88.28
75536;BME280;64119;52.070;20.804;2022-10-31T08:22:13;100903.64;;;12.52;88.12
75536;BME280;64119;52.070;20.804;2022-10-31T08:24:39;100904.16;;;12.55;88.42
75536;BME280;64119;52.070;20.804;2022-10-31T08:27:05;100907.82;;;12.55;88.74
75536;BME280;64119;52.070;20.804;2022-10-31T08:29:32;100909.30;;;12.55;88.79
75536;BME280;64119;52.070;20.804;2022-10-31T08:31:58;100916.25;;;12.59;88.69
75536;BME280;64119;52.070;20.804;2022-10-31T08:34:43;100919.75;;;12.65;88.43
75536;BME280;64119;52.070;20.804;2022-10-31T08:37:28;100922.43;;;12.67;88.28
75536;BME280;64119;52.070;20.804;2022-10-31T08:39:54;100927.44;;;12.72;88.45
75536;BME280;64119;52.070;20.804;2022-10-31T08:42:21;100935.38;;;12.78;88.47
75536;BME280;64119;52.070;20.804;2022-10-31T08:44:47;100936.65;;;12.94;88.20
75536;BME280;64119;52.070;20.804;2022-10-31T08:47:14;100936.36;;;13.04;87.64
75536;BME280;64119;52.070;20.804;2022-10-31T08:49:40;100938.38;;;13.08;87.41
75536;BME280;64119;52.070;20.804;2022-10-31T08:52:07;100943.98;;;13.19;87.11
75536;BME280;64119;52.070;20.804;2022-10-31T08:54:40;100943.11;;;13.27;87.35
75536;BME280;64119;52.070;20.804;2022-10-31T08:57:32;100945.58;;;13.39;87.17
75536;BME280;64119;52.070;20.804;2022-10-31T08:59:59;100943.88;;;13.56;86.88
75536;BME280;64119;52.070;20.804;2022-10-31T09:02:45;100947.38;;;13.58;86.45
75536;BME280;64119;52.070;20.804;2022-10-31T09:05:12;100944.12;;;13.54;86.65
75536;BME280;64119;52.070;20.804;2022-10-31T09:07:39;100942.85;;;13.61;86.42
75536;BME280;64119;52.070;20.804;2022-10-31T09:10:05;100940.50;;;13.66;86.31
75536;BME280;64119;52.070;20.804;2022-10-31T09:12:34;100934.05;;;13.68;86.50
75536;BME280;64119;52.070;20.804;2022-10-31T09:15:19;100934.49;;;13.67;86.76
75536;BME280;64119;52.070;20.804;2022-10-31T09:17:55;100937.25;;;13.73;86.90
75536;BME280;64119;52.070;20.804;2022-10-31T09:20:39;100934.98;;;13.85;86.35
75536;BME280;64119;52.070;20.804;2022-10-31T09:23:07;100935.45;;;14.09;85.75
75536;BME280;64119;52.070;20.804;2022-10-31T09:25:37;100936.27;;;14.45;84.94
75536;BME280;64119;52.070;20.804;2022-10-31T09:28:31;100930.72;;;14.68;84.24
75536;BME280;64119;52.070;20.804;2022-10-31T09:31:03;100930.05;;;14.80;84.31
75536;BME280;64119;52.070;20.804;2022-10-31T09:33:48;100933.70;;;14.83;84.12
75536;BME280;64119;52.070;20.804;2022-10-31T09:36:35;100930.55;;;14.76;84.24
75536;BME280;64119;52.070;20.804;2022-10-31T09:39:03;100931.40;;;14.61;84.07
75536;BME280;64119;52.070;20.804;2022-10-31T09:41:57;100934.66;;;14.51;83.87
75536;BME280;64119;52.070;20.804;2022-10-31T09:44:40;100937.09;;;14.47;84.05
75536;BME280;64119;52.070;20.804;2022-10-31T09:50:49;100939.82;;;14.56;84.12
75536;BME280;64119;52.070;20.804;2022-10-31T09:54:13;100942.02;;;14.55;83.99
75536;BME280;64119;52.070;20.804;2022-10-31T09:56:22;100942.20;;;14.46;83.97
75536;BME280;64119;52.070;20.804;2022-10-31T09:58:55;100940.35;;;14.37;84.17
75536;BME280;64119;52.070;20.804;2022-10-31T10:02:04;100942.39;;;14.24;84.65
75536;BME280;64119;52.070;20.804;2022-10-31T10:04:58;100938.94;;;14.16;85.16
75536;BME280;64119;52.070;20.804;2022-10-31T10:10:49;100940.89;;;14.03;85.51
75536;BME280;64119;52.070;20.804;2022-10-31T10:24:31;100942.23;;;13.89;86.37
75536;BME280;64119;52.070;20.804;2022-10-31T10:27:05;100941.30;;;13.91;86.31
75536;BME280;64119;52.070;20.804;2022-10-31T10:29:39;100942.63;;;13.86;86.40
75536;BME280;64119;52.070;20.804;2022-10-31T10:32:21;100940.35;;;13.83;86.28
75536;BME280;64119;52.070;20.804;2022-10-31T10:34:51;100939.08;;;13.84;86.53
75536;BME280;64119;52.070;20.804;2022-10-31T10:37:28;100940.95;;;13.82;86.87
75536;BME280;64119;52.070;20.804;2022-10-31T10:40:47;100939.16;;;13.84;87.07
75536;BME280;64119;52.070;20.804;2022-10-31T10:43:15;100939.63;;;13.81;86.94
75536;BME280;64119;52.070;20.804;2022-10-31T10:45:56;100937.61;;;13.80;87.04
75536;BME280;64119;52.070;20.804;2022-10-31T10:48:51;100926.58;;;13.80;86.98
75536;BME280;64119;52.070;20.804;2022-10-31T10:51:32;100923.42;;;13.81;87.13
75536;BME280;64119;52.070;20.804;2022-10-31T10:57:22;100928.45;;;13.83;87.69
75536;BME280;64119;52.070;20.804;2022-10-31T10:59:49;100929.61;;;13.85;87.79
75536;BME280;64119;52.070;20.804;2022-10-31T11:02:29;100937.88;;;13.83;88.08
75536;BME280;64119;52.070;20.804;2022-10-31T11:04:58;100935.48;;;13.80;88.03
75536;BME280;64119;52.070;20.804;2022-10-31T11:07:37;100932.48;;;13.80;88.29
75536;BME280;64119;52.070;20.804;2022-10-31T11:10:05;100928.77;;;13.81;88.19
75536;BME280;64119;52.070;20.804;2022-10-31T11:12:39;100926.06;;;13.82;88.26
75536;BME280;64119;52.070;20.804;2022-10-31T11:15:26;100925.33;;;13.83;87.96
75536;BME280;64119;52.070;20.804;2022-10-31T11:17:55;100927.01;;;13.82;87.84
75536;BME280;64119;52.070;20.804;2022-10-31T11:20:34;100922.02;;;13.78;88.18
75536;BME280;64119;52.070;20.804;2022-10-31T11:23:20;100918.87;;;13.79;88.14
75536;BME280;64119;52.070;20.804;2022-10-31T11:25:49;100923.39;;;13.81;88.20
75536;BME280;64119;52.070;20.804;2022-10-31T11:28:16;100929.67;;;13.82;88.34
75536;BME280;64119;52.070;20.804;2022-10-31T11:30:46;100927.56;;;13.87;88.11
75536;BME280;64119;52.070;20.804;2022-10-31T11:35:44;100928.04;;;13.84;87.88
75536;BME280;64119;52.070;20.804;2022-10-31T11:38:17;100922.89;;;13.79;87.96
75536;BME280;64119;52.070;20.804;2022-10-31T11:40:59;100921.64;;;13.78;88.31
75536;BME280;64119;52.070;20.804;2022-10-31T11:43:26;100923.08;;;13.84;88.53
75536;BME280;64119;52.070;20.804;2022-10-31T11:45:53;100922.27;;;13.86;88.76
75536;BME280;64119;52.070;20.804;2022-10-31T11:48:22;100920.04;;;13.89;88.70
75536;BME280;64119;52.070;20.804;2022-10-31T11:50:52;100920.33;;;13.91;88.81
75536;BME280;64119;52.070;20.804;2022-10-31T11:53:26;100920.21;;;13.93;88.18
75536;BME280;64119;52.070;20.804;2022-10-31T11:56:14;100922.29;;;13.95;88.27
75536;BME280;64119;52.070;20.804;2022-10-31T11:58:41;100924.20;;;13.93;88.68
75536;BME280;64119;52.070;20.804;2022-10-31T12:01:23;100925.82;;;13.90;88.88
75536;BME280;64119;52.070;20.804;2022-10-31T12:04:14;100926.83;;;13.92;88.76
75536;BME280;64119;52.070;20.804;2022-10-31T12:06:41;100919.65;;;13.95;88.85
75536;BME280;64119;52.070;20.804;2022-10-31T12:09:29;100916.86;;;13.94;88.64
75536;BME280;64119;52.070;20.804;2022-10-31T12:15:23;100919.83;;;13.91;88.86
75536;BME280;64119;52.070;20.804;2022-10-31T12:31:59;100910.73;;;13.86;88.93
75536;BME280;64119;52.070;20.804;2022-10-31T12:34:49;100911.04;;;13.89;89.21
75536;BME280;64119;52.070;20.804;2022-10-31T12:43:09;100913.95;;;13.80;89.35
75536;BME280;64119;52.070;20.804;2022-10-31T12:45:53;100912.89;;;13.76;89.39
75536;BME280;64119;52.070;20.804;2022-10-31T12:59:31;100914.60;;;13.68;89.46
75536;BME280;64119;52.070;20.804;2022-10-31T13:02:43;100912.30;;;13.67;89.85
75536;BME280;64119;52.070;20.804;2022-10-31T13:05:04;100912.79;;;13.71;89.82
75536;BME280;64119;52.070;20.804;2022-10-31T13:07:44;100912.79;;;13.74;90.15
75536;BME280;64119;52.070;20.804;2022-10-31T13:10:21;100918.73;;;13.77;89.92
75536;BME280;64119;52.070;20.804;2022-10-31T13:12:52;100913.48;;;13.80;89.60
75536;BME280;64119;52.070;20.804;2022-10-31T13:15:23;100918.38;;;13.75;89.67
75536;BME280;64119;52.070;20.804;2022-10-31T13:18:21;100916.67;;;13.71;89.54
75536;BME280;64119;52.070;20.804;2022-10-31T13:20:49;100914.91;;;13.78;89.36
75536;BME280;64119;52.070;20.804;2022-10-31T13:23:28;100917.05;;;13.86;89.30
75536;BME280;64119;52.070;20.804;2022-10-31T13:31:53;100918.45;;;13.92;88.88
75536;BME280;64119;52.070;20.804;2022-10-31T13:34:32;100916.30;;;13.82;88.88
75536;BME280;64119;52.070;20.804;2022-10-31T13:40:35;100915.66;;;13.72;89.38
75536;BME280;64119;52.070;20.804;2022-10-31T13:45:57;100921.73;;;13.66;89.31
75536;BME280;64119;52.070;20.804;2022-10-31T13:50:58;100917.08;;;13.59;89.39
75536;BME280;64119;52.070;20.804;2022-10-31T13:53:45;100912.66;;;13.54;89.51
75536;BME280;64119;52.070;20.804;2022-10-31T13:56:29;100915.23;;;13.52;89.55
75536;BME280;64119;52.070;20.804;2022-10-31T14:01:29;100918.94;;;13.54;89.82
75536;BME280;64119;52.070;20.804;2022-10-31T14:04:03;100919.74;;;13.53;89.87
75536;BME280;64119;52.070;20.804;2022-10-31T14:09:22;100920.50;;;13.49;89.50
75536;BME280;64119;52.070;20.804;2022-10-31T14:11:51;100915.35;;;13.42;89.88
75536;BME280;64119;52.070;20.804;2022-10-31T14:14:20;100911.63;;;13.38;90.25
75536;BME280;64119;52.070;20.804;2022-10-31T14:16:56;100910.47;;;13.31;90.46
75536;BME280;64119;52.070;20.804;2022-10-31T14:19:25;100910.63;;;13.29;90.45
75536;BME280;64119;52.070;20.804;2022-10-31T14:21:53;100909.43;;;13.31;90.66
75536;BME280;64119;52.070;20.804;2022-10-31T14:29:34;100907.75;;;13.28;90.52
75536;BME280;64119;52.070;20.804;2022-10-31T14:32:28;100907.89;;;13.27;90.46
75536;BME280;64119;52.070;20.804;2022-10-31T14:34:56;100906.52;;;13.25;90.34
75536;BME280;64119;52.070;20.804;2022-10-31T14:45:40;100899.26;;;13.45;90.38
75536;BME280;64119;52.070;20.804;2022-10-31T14:51:54;100895.48;;;13.49;89.80
75536;BME280;64119;52.070;20.804;2022-10-31T14:53:56;100896.48;;;13.47;89.80
75536;BME280;64119;52.070;20.804;2022-10-31T14:56:27;100895.52;;;13.48;90.26
75536;BME280;64119;52.070;20.804;2022-10-31T14:58:59;100894.68;;;13.48;90.32
75536;BME280;64119;52.070;20.804;2022-10-31T15:01:32;100894.58;;;13.43;90.54
75536;BME280;64119;52.070;20.804;2022-10-31T15:07:13;100901.27;;;13.34;90.61
75536;BME280;64119;52.070;20.804;2022-10-31T15:10:02;100902.11;;;13.27;90.63
75536;BME280;64119;52.070;20.804;2022-10-31T15:12:33;100901.98;;;13.26;90.62
75536;BME280;64119;52.070;20.804;2022-10-31T15:15:16;100902.57;;;13.27;90.86
75536;BME280;64119;52.070;20.804;2022-10-31T15:17:51;100905.80;;;13.32;90.81
75536;BME280;64119;52.070;20.804;2022-10-31T15:20:23;100906.21;;;13.34;90.97
75536;BME280;64119;52.070;20.804;2022-10-31T15:22:52;100907.23;;;13.40;90.73
75536;BME280;64119;52.070;20.804;2022-10-31T15:25:24;100903.11;;;13.50;90.32
75536;BME280;64119;52.070;20.804;2022-10-31T15:27:53;100904.68;;;13.57;89.95
75536;BME280;64119;52.070;20.804;2022-10-31T15:30:26;100903.87;;;13.59;89.93